sensor_id;sensor_type;location;lat;lon;timestamp;pressure;altitude;pressure_sealevel;temperature;humidity
43436;BME280;36399;51.444;-2.018;2022-12-15T00:02:26;100287.50;;;-9.69;100.00
43436;BME280;36399;51.444;-2.018;2022-12-15T00:05:11;100286.09;;;-9.46;100.00
43436;BME280;36399;51.444;-2.018;2022-12-15T00:07:55;100280.63;;;-9.41;100.00
43436;BME280;36399;51.444;-2.018;2022-12-15T00:10:39;100292.25;;;-9.34;100.00
43436;BME280;36399;51.444;-2.018;2022-12-15T00:13:23;100283.94;;;-9.42;100.00
43436;BME280;36399;51.444;-2.018;2022-12-15T00:16:08;100289.25;;;-9.49;100.00
43436;BME280;36399;51.444;-2.018;2022-12-15T00:18:52;100285.00;;;-9.59;100.00
43436;BME280;36399;51.444;-2.018;2022-12-15T00:21:37;100281.75;;;-9.47;100.00
43436;BME280;36399;51.444;-2.018;2022-12-15T00:24:24;100284.91;;;-9.50;100.00
43436;BME280;36399;51.444;-2.018;2022-12-15T00:27:08;100278.19;;;-9.49;100.00
43436;BME280;36399;51.444;-2.018;2022-12-15T00:29:53;100273.06;;;-9.60;100.00
43436;BME280;36399;51.444;-2.018;2022-12-15T00:32:37;100262.19;;;-9.48;100.00
43436;BME280;36399;51.444;-2.018;2022-12-15T00:35:22;100255.50;;;-9.38;100.00
43436;BME280;36399;51.444;-2.018;2022-12-15T00:38:11;100261.63;;;-9.36;100.00
43436;BME280;36399;51.444;-2.018;2022-12-15T00:40:56;100252.50;;;-9.52;100.00
43436;BME280;36399;51.444;-2.018;2022-12-15T00:43:29;100260.97;;;-9.62;100.00
43436;BME280;36399;51.444;-2.018;2022-12-15T00:45:56;100250.16;;;-9.70;100.00
43436;BME280;36399;51.444;-2.018;2022-12-15T00:48:41;100246.81;;;-9.79;100.00
43436;BME280;36399;51.444;-2.018;2022-12-15T00:51:08;100243.22;;;-9.81;100.00
43436;BME280;36399;51.444;-2.018;2022-12-15T00:53:34;100255.94;;;-9.81;100.00
43436;BME280;36399;51.444;-2.018;2022-12-15T00:56:19;100255.75;;;-9.64;100.00
43436;BME280;36399;51.444;-2.018;2022-12-15T00:59:03;100250.78;;;-9.72;100.00
43436;BME280;36399;51.444;-2.018;2022-12-15T01:01:48;100253.09;;;-9.65;100.00
43436;BME280;36399;51.444;-2.018;2022-12-15T01:04:32;100246.50;;;-9.63;100.00
43436;BME280;36399;51.444;-2.018;2022-12-15T01:07:17;100245.88;;;-9.61;100.00
43436;BME280;36399;51.444;-2.018;2022-12-15T01:10:01;100246.59;;;-9.72;100.00
43436;BME280;36399;51.444;-2.018;2022-12-15T01:12:46;100248.84;;;-9.75;100.00
43436;BME280;36399;51.444;-2.018;2022-12-15T01:15:31;100259.16;;;-9.73;100.00
43436;BME280;36399;51.444;-2.018;2022-12-15T01:18:15;100258.00;;;-9.77;100.00
43436;BME280;36399;51.444;-2.018;2022-12-15T01:21:03;100252.09;;;-9.86;100.00
43436;BME280;36399;51.444;-2.018;2022-12-15T01:23:30;100256.97;;;-9.79;100.00
43436;BME280;36399;51.444;-2.018;2022-12-15T01:25:57;100251.13;;;-9.78;100.00
43436;BME280;36399;51.444;-2.018;2022-12-15T01:28:23;100254.63;;;-9.86;100.00
43436;BME280;36399;51.444;-2.018;2022-12-15T01:30:49;100253.00;;;-9.85;100.00
43436;BME280;36399;51.444;-2.018;2022-12-15T01:33:16;100263.56;;;-9.81;100.00
43436;BME280;36399;51.444;-2.018;2022-12-15T01:35:42;100249.34;;;-9.79;100.00
43436;BME280;36399;51.444;-2.018;2022-12-15T01:38:10;100252.84;;;-9.87;100.00
43436;BME280;36399;51.444;-2.018;2022-12-15T01:40:36;100253.72;;;-10.05;100.00
43436;BME280;36399;51.444;-2.018;2022-12-15T01:43:30;100256.56;;;-10.21;100.00
43436;BME280;36399;51.444;-2.018;2022-12-15T01:48:27;100264.69;;;-10.15;100.00
43436;BME280;36399;51.444;-2.018;2022-12-15T01:51:07;100260.03;;;-10.10;100.00
43436;BME280;36399;51.444;-2.018;2022-12-15T01:53:42;100263.59;;;-10.08;100.00
43436;BME280;36399;51.444;-2.018;2022-12-15T01:56:10;100260.25;;;-10.18;100.00
43436;BME280;36399;51.444;-2.018;2022-12-15T01:58:37;100271.88;;;-10.30;100.00
43436;BME280;36399;51.444;-2.018;2022-12-15T02:01:06;100274.41;;;-10.30;100.00
43436;BME280;36399;51.444;-2.018;2022-12-15T02:03:32;100274.69;;;-10.27;100.00
43436;BME280;36399;51.444;-2.018;2022-12-15T02:05:59;100274.91;;;-10.42;100.00
43436;BME280;36399;51.444;-2.018;2022-12-15T02:08:27;100278.81;;;-10.46;100.00
43436;BME280;36399;51.444;-2.018;2022-12-15T02:11:19;100277.97;;;-10.55;100.00
43436;BME280;36399;51.444;-2.018;2022-12-15T02:22:50;100286.00;;;-10.51;100.00
43436;BME280;36399;51.444;-2.018;2022-12-15T02:31:06;100283.97;;;-10.63;100.00
43436;BME280;36399;51.444;-2.018;2022-12-15T02:34:44;100288.94;;;-10.46;100.00
43436;BME280;36399;51.444;-2.018;2022-12-15T02:36:48;100277.00;;;-10.38;100.00
43436;BME280;36399;51.444;-2.018;2022-12-15T02:39:17;100277.56;;;-10.41;100.00
43436;BME280;36399;51.444;-2.018;2022-12-15T02:41:45;100270.44;;;-10.45;100.00
43436;BME280;36399;51.444;-2.018;2022-12-15T02:44:16;100260.56;;;-10.42;100.00
43436;BME280;36399;51.444;-2.018;2022-12-15T03:00:01;100255.22;;;-10.45;100.00
43436;BME280;36399;51.444;-2.018;2022-12-15T03:02:31;100253.78;;;-10.52;100.00
43436;BME280;36399;51.444;-2.018;2022-12-15T03:04:59;100256.16;;;-10.53;100.00
43436;BME280;36399;51.444;-2.018;2022-12-15T03:07:26;100251.28;;;-10.60;100.00
43436;BME280;36399;51.444;-2.018;2022-12-15T03:09:56;100255.19;;;-10.64;100.00
43436;BME280;36399;51.444;-2.018;2022-12-15T03:12:24;100251.31;;;-10.41;100.00
43436;BME280;36399;51.444;-2.018;2022-12-15T03:14:50;100262.06;;;-10.35;100.00
43436;BME280;36399;51.444;-2.018;2022-12-15T03:17:16;100264.59;;;-10.35;100.00
43436;BME280;36399;51.444;-2.018;2022-12-15T03:19:42;100266.25;;;-10.44;100.00
43436;BME280;36399;51.444;-2.018;2022-12-15T03:22:08;100268.84;;;-10.53;100.00
43436;BME280;36399;51.444;-2.018;2022-12-15T03:24:34;100261.28;;;-10.62;100.00
43436;BME280;36399;51.444;-2.018;2022-12-15T03:27:00;100259.28;;;-10.74;100.00
43436;BME280;36399;51.444;-2.018;2022-12-15T03:29:26;100257.81;;;-10.81;100.00
43436;BME280;36399;51.444;-2.018;2022-12-15T03:31:52;100264.44;;;-10.64;100.00
43436;BME280;36399;51.444;-2.018;2022-12-15T03:34:18;100258.06;;;-10.69;100.00
43436;BME280;36399;51.444;-2.018;2022-12-15T03:36:44;100250.63;;;-10.76;100.00
43436;BME280;36399;51.444;-2.018;2022-12-15T03:39:09;100256.94;;;-10.81;100.00
43436;BME280;36399;51.444;-2.018;2022-12-15T03:41:35;100259.03;;;-10.86;100.00
43436;BME280;36399;51.444;-2.018;2022-12-15T03:44:01;100254.13;;;-10.93;100.00
43436;BME280;36399;51.444;-2.018;2022-12-15T03:46:27;100254.19;;;-10.74;100.00
43436;BME280;36399;51.444;-2.018;2022-12-15T03:48:53;100255.59;;;-10.59;100.00
43436;BME280;36399;51.444;-2.018;2022-12-15T03:51:20;100256.63;;;-10.57;100.00
43436;BME280;36399;51.444;-2.018;2022-12-15T03:53:46;100254.00;;;-10.67;100.00
43436;BME280;36399;51.444;-2.018;2022-12-15T03:56:15;100253.94;;;-10.77;100.00
43436;BME280;36399;51.444;-2.018;2022-12-15T03:58:41;100256.09;;;-10.91;100.00
43436;BME280;36399;51.444;-2.018;2022-12-15T04:01:21;100262.81;;;-11.00;100.00
43436;BME280;36399;51.444;-2.018;2022-12-15T04:03:50;100262.84;;;-11.08;100.00
43436;BME280;36399;51.444;-2.018;2022-12-15T04:06:16;100257.94;;;-11.16;100.00
43436;BME280;36399;51.444;-2.018;2022-12-15T04:08:42;100256.47;;;-11.22;100.00
43436;BME280;36399;51.444;-2.018;2022-12-15T04:11:08;100263.34;;;-11.21;100.00
43436;BME280;36399;51.444;-2.018;2022-12-15T04:13:34;100262.91;;;-11.26;100.00
43436;BME280;36399;51.444;-2.018;2022-12-15T04:16:01;100266.16;;;-11.18;100.00
43436;BME280;36399;51.444;-2.018;2022-12-15T04:18:27;100257.63;;;-11.10;100.00
43436;BME280;36399;51.444;-2.018;2022-12-15T04:20:53;100254.63;;;-11.06;100.00
43436;BME280;36399;51.444;-2.018;2022-12-15T04:23:20;100259.69;;;-11.06;100.00
43436;BME280;36399;51.444;-2.018;2022-12-15T04:25:46;100254.50;;;-11.07;100.00
43436;BME280;36399;51.444;-2.018;2022-12-15T04:28:31;100257.91;;;-11.07;100.00
43436;BME280;36399;51.444;-2.018;2022-12-15T04:31:19;100253.44;;;-11.09;100.00
43436;BME280;36399;51.444;-2.018;2022-12-15T04:34:08;100254.06;;;-11.12;100.00
43436;BME280;36399;51.444;-2.018;2022-12-15T04:36:54;100246.31;;;-11.13;100.00
43436;BME280;36399;51.444;-2.018;2022-12-15T04:39:45;100245.25;;;-11.07;100.00
43436;BME280;36399;51.444;-2.018;2022-12-15T04:42:31;100239.09;;;-10.92;100.00
43436;BME280;36399;51.444;-2.018;2022-12-15T04:45:19;100237.41;;;-10.82;100.00
43436;BME280;36399;51.444;-2.018;2022-12-15T04:48:04;100239.94;;;-10.82;100.00
43436;BME280;36399;51.444;-2.018;2022-12-15T04:50:49;100242.44;;;-10.55;100.00
43436;BME280;36399;51.444;-2.018;2022-12-15T04:53:33;100243.22;;;-10.84;100.00
43436;BME280;36399;51.444;-2.018;2022-12-15T04:56:17;100244.06;;;-10.74;100.00
43436;BME280;36399;51.444;-2.018;2022-12-15T04:59:02;100242.56;;;-10.72;100.00
43436;BME280;36399;51.444;-2.018;2022-12-15T05:01:47;100246.19;;;-10.79;100.00
43436;BME280;36399;51.444;-2.018;2022-12-15T05:04:32;100249.78;;;-10.86;100.00
43436;BME280;36399;51.444;-2.018;2022-12-15T05:07:16;100248.06;;;-11.04;100.00
43436;BME280;36399;51.444;-2.018;2022-12-15T05:10:01;100247.38;;;-11.20;100.00
43436;BME280;36399;51.444;-2.018;2022-12-15T05:12:45;100243.28;;;-11.37;100.00
43436;BME280;36399;51.444;-2.018;2022-12-15T05:15:31;100235.66;;;-11.46;100.00
43436;BME280;36399;51.444;-2.018;2022-12-15T05:18:16;100237.78;;;-11.41;100.00
43436;BME280;36399;51.444;-2.018;2022-12-15T05:21:00;100241.47;;;-11.47;100.00
43436;BME280;36399;51.444;-2.018;2022-12-15T05:23:45;100246.25;;;-11.50;100.00
43436;BME280;36399;51.444;-2.018;2022-12-15T05:26:29;100241.94;;;-11.51;100.00
43436;BME280;36399;51.444;-2.018;2022-12-15T05:29:14;100237.91;;;-11.49;100.00
43436;BME280;36399;51.444;-2.018;2022-12-15T05:31:58;100243.44;;;-11.53;100.00
43436;BME280;36399;51.444;-2.018;2022-12-15T05:34:27;100244.03;;;-11.55;100.00
43436;BME280;36399;51.444;-2.018;2022-12-15T05:36:54;100241.78;;;-11.52;100.00
43436;BME280;36399;51.444;-2.018;2022-12-15T05:39:21;100247.13;;;-11.32;100.00
43436;BME280;36399;51.444;-2.018;2022-12-15T05:41:47;100254.94;;;-11.11;100.00
43436;BME280;36399;51.444;-2.018;2022-12-15T05:44:13;100259.97;;;-11.03;100.00
43436;BME280;36399;51.444;-2.018;2022-12-15T05:46:39;100261.78;;;-11.02;100.00
43436;BME280;36399;51.444;-2.018;2022-12-15T05:49:13;100253.13;;;-11.04;100.00
43436;BME280;36399;51.444;-2.018;2022-12-15T05:51:42;100261.19;;;-11.08;100.00
43436;BME280;36399;51.444;-2.018;2022-12-15T05:54:09;100269.91;;;-11.23;100.00
43436;BME280;36399;51.444;-2.018;2022-12-15T05:56:36;100262.06;;;-11.43;100.00
43436;BME280;36399;51.444;-2.018;2022-12-15T05:59:03;100267.44;;;-11.58;100.00
43436;BME280;36399;51.444;-2.018;2022-12-15T06:01:29;100264.31;;;-11.64;100.00
43436;BME280;36399;51.444;-2.018;2022-12-15T06:03:56;100272.31;;;-11.33;100.00
43436;BME280;36399;51.444;-2.018;2022-12-15T06:06:23;100269.84;;;-11.06;100.00
43436;BME280;36399;51.444;-2.018;2022-12-15T06:08:49;100263.28;;;-11.04;100.00
43436;BME280;36399;51.444;-2.018;2022-12-15T06:11:16;100262.81;;;-11.00;100.00
43436;BME280;36399;51.444;-2.018;2022-12-15T06:13:43;100261.72;;;-10.85;100.00
43436;BME280;36399;51.444;-2.018;2022-12-15T06:16:12;100271.34;;;-11.08;100.00
43436;BME280;36399;51.444;-2.018;2022-12-15T06:18:41;100270.50;;;-11.26;100.00
43436;BME280;36399;51.444;-2.018;2022-12-15T06:21:13;100272.91;;;-11.27;100.00
43436;BME280;36399;51.444;-2.018;2022-12-15T06:23:41;100268.75;;;-11.35;100.00
43436;BME280;36399;51.444;-2.018;2022-12-15T06:26:20;100267.25;;;-11.33;100.00
43436;BME280;36399;51.444;-2.018;2022-12-15T06:28:48;100264.25;;;-11.29;100.00
43436;BME280;36399;51.444;-2.018;2022-12-15T06:31:16;100273.13;;;-11.07;100.00
43436;BME280;36399;51.444;-2.018;2022-12-15T06:33:42;100263.84;;;-10.98;100.00
43436;BME280;36399;51.444;-2.018;2022-12-15T06:36:16;100265.00;;;-10.86;100.00
43436;BME280;36399;51.444;-2.018;2022-12-15T06:38:42;100277.53;;;-10.96;100.00
43436;BME280;36399;51.444;-2.018;2022-12-15T06:41:11;100276.88;;;-11.12;100.00
43436;BME280;36399;51.444;-2.018;2022-12-15T06:43:38;100278.38;;;-11.14;100.00
43436;BME280;36399;51.444;-2.018;2022-12-15T06:46:04;100275.38;;;-11.10;100.00
43436;BME280;36399;51.444;-2.018;2022-12-15T06:48:30;100271.97;;;-11.19;100.00
43436;BME280;36399;51.444;-2.018;2022-12-15T06:51:05;100277.22;;;-11.26;100.00
43436;BME280;36399;51.444;-2.018;2022-12-15T06:53:34;100280.22;;;-11.48;100.00
43436;BME280;36399;51.444;-2.018;2022-12-15T06:56:01;100278.91;;;-11.61;100.00
43436;BME280;36399;51.444;-2.018;2022-12-15T06:58:27;100273.25;;;-11.67;100.00
43436;BME280;36399;51.444;-2.018;2022-12-15T07:00:53;100279.06;;;-11.68;100.00
43436;BME280;36399;51.444;-2.018;2022-12-15T07:03:20;100273.84;;;-11.70;100.00
43436;BME280;36399;51.444;-2.018;2022-12-15T07:05:47;100276.53;;;-11.77;100.00
43436;BME280;36399;51.444;-2.018;2022-12-15T07:08:14;100278.06;;;-11.79;100.00
43436;BME280;36399;51.444;-2.018;2022-12-15T07:10:42;100272.50;;;-11.66;100.00
43436;BME280;36399;51.444;-2.018;2022-12-15T07:13:10;100280.41;;;-11.72;100.00
43436;BME280;36399;51.444;-2.018;2022-12-15T07:15:37;100277.31;;;-11.78;100.00
43436;BME280;36399;51.444;-2.018;2022-12-15T07:18:03;100278.66;;;-11.82;100.00
43436;BME280;36399;51.444;-2.018;2022-12-15T07:20:29;100271.84;;;-11.91;100.00
43436;BME280;36399;51.444;-2.018;2022-12-15T07:22:55;100286.13;;;-11.92;100.00
43436;BME280;36399;51.444;-2.018;2022-12-15T07:25:21;100282.84;;;-11.82;100.00
43436;BME280;36399;51.444;-2.018;2022-12-15T07:27:47;100286.41;;;-11.80;100.00
43436;BME280;36399;51.444;-2.018;2022-12-15T07:30:14;100281.94;;;-11.83;100.00
43436;BME280;36399;51.444;-2.018;2022-12-15T07:32:41;100283.13;;;-11.79;100.00
43436;BME280;36399;51.444;-2.018;2022-12-15T07:35:07;100282.94;;;-11.72;100.00
43436;BME280;36399;51.444;-2.018;2022-12-15T07:37:33;100286.50;;;-11.70;100.00
43436;BME280;36399;51.444;-2.018;2022-12-15T07:40:00;100288.75;;;-11.73;100.00
43436;BME280;36399;51.444;-2.018;2022-12-15T07:42:28;100287.16;;;-11.81;100.00
43436;BME280;36399;51.444;-2.018;2022-12-15T07:44:54;100287.00;;;-11.91;100.00
43436;BME280;36399;51.444;-2.018;2022-12-15T07:47:20;100294.72;;;-11.98;100.00
43436;BME280;36399;51.444;-2.018;2022-12-15T07:49:46;100287.59;;;-12.02;100.00
43436;BME280;36399;51.444;-2.018;2022-12-15T07:52:12;100298.16;;;-12.06;100.00
43436;BME280;36399;51.444;-2.018;2022-12-15T07:54:39;100293.09;;;-11.98;100.00
43436;BME280;36399;51.444;-2.018;2022-12-15T07:57:05;100304.28;;;-11.96;100.00
43436;BME280;36399;51.444;-2.018;2022-12-15T07:59:35;100296.69;;;-11.96;100.00
43436;BME280;36399;51.444;-2.018;2022-12-15T08:02:01;100301.88;;;-12.03;100.00
43436;BME280;36399;51.444;-2.018;2022-12-15T08:04:29;100309.31;;;-12.04;100.00
43436;BME280;36399;51.444;-2.018;2022-12-15T08:06:56;100310.81;;;-12.06;100.00
43436;BME280;36399;51.444;-2.018;2022-12-15T08:09:23;100312.28;;;-12.08;100.00
43436;BME280;36399;51.444;-2.018;2022-12-15T08:11:48;100303.94;;;-11.73;100.00
43436;BME280;36399;51.444;-2.018;2022-12-15T08:14:16;100309.56;;;-11.50;100.00
43436;BME280;36399;51.444;-2.018;2022-12-15T08:16:42;100311.97;;;-11.51;100.00
43436;BME280;36399;51.444;-2.018;2022-12-15T08:19:11;100315.25;;;-11.61;100.00
43436;BME280;36399;51.444;-2.018;2022-12-15T08:21:41;100316.91;;;-11.70;100.00
43436;BME280;36399;51.444;-2.018;2022-12-15T08:24:08;100315.00;;;-11.81;100.00
43436;BME280;36399;51.444;-2.018;2022-12-15T08:26:35;100306.97;;;-11.86;100.00
43436;BME280;36399;51.444;-2.018;2022-12-15T08:29:04;100315.56;;;-11.75;100.00
43436;BME280;36399;51.444;-2.018;2022-12-15T08:31:31;100316.75;;;-11.63;100.00
43436;BME280;36399;51.444;-2.018;2022-12-15T08:33:59;100317.34;;;-11.65;100.00
43436;BME280;36399;51.444;-2.018;2022-12-15T08:36:26;100328.50;;;-11.72;100.00
43436;BME280;36399;51.444;-2.018;2022-12-15T08:38:55;100333.44;;;-11.73;100.00
43436;BME280;36399;51.444;-2.018;2022-12-15T08:41:27;100339.56;;;-11.80;100.00
43436;BME280;36399;51.444;-2.018;2022-12-15T08:43:54;100340.47;;;-11.80;100.00
43436;BME280;36399;51.444;-2.018;2022-12-15T08:46:24;100343.25;;;-11.76;100.00
43436;BME280;36399;51.444;-2.018;2022-12-15T08:48:50;100334.91;;;-11.67;100.00
43436;BME280;36399;51.444;-2.018;2022-12-15T08:51:18;100338.31;;;-11.49;100.00
43436;BME280;36399;51.444;-2.018;2022-12-15T08:53:44;100344.28;;;-11.23;100.00
43436;BME280;36399;51.444;-2.018;2022-12-15T08:56:13;100344.06;;;-11.07;100.00
43436;BME280;36399;51.444;-2.018;2022-12-15T08:58:41;100348.81;;;-10.93;100.00
43436;BME280;36399;51.444;-2.018;2022-12-15T09:01:10;100353.00;;;-10.85;100.00
43436;BME280;36399;51.444;-2.018;2022-12-15T09:03:37;100347.28;;;-10.73;100.00
43436;BME280;36399;51.444;-2.018;2022-12-15T09:06:11;100348.50;;;-10.78;100.00
43436;BME280;36399;51.444;-2.018;2022-12-15T09:08:37;100353.84;;;-10.75;100.00
43436;BME280;36399;51.444;-2.018;2022-12-15T09:11:04;100358.91;;;-10.75;100.00
43436;BME280;36399;51.444;-2.018;2022-12-15T09:13:32;100369.63;;;-10.69;100.00
43436;BME280;36399;51.444;-2.018;2022-12-15T09:16:00;100366.13;;;-10.53;100.00
43436;BME280;36399;51.444;-2.018;2022-12-15T09:18:27;100369.38;;;-10.45;100.00
43436;BME280;36399;51.444;-2.018;2022-12-15T09:20:54;100369.78;;;-10.32;100.00
43436;BME280;36399;51.444;-2.018;2022-12-15T09:23:20;100373.94;;;-10.05;100.00
43436;BME280;36399;51.444;-2.018;2022-12-15T09:25:46;100379.72;;;-9.32;100.00
43436;BME280;36399;51.444;-2.018;2022-12-15T09:28:13;100392.78;;;-8.51;100.00
43436;BME280;36399;51.444;-2.018;2022-12-15T09:30:39;100388.91;;;-7.25;100.00
43436;BME280;36399;51.444;-2.018;2022-12-15T09:33:05;100396.28;;;-6.44;100.00
43436;BME280;36399;51.444;-2.018;2022-12-15T09:35:31;100402.53;;;-5.85;100.00
43436;BME280;36399;51.444;-2.018;2022-12-15T09:37:57;100413.13;;;-5.24;100.00
43436;BME280;36399;51.444;-2.018;2022-12-15T09:40:23;100414.63;;;-4.57;100.00
43436;BME280;36399;51.444;-2.018;2022-12-15T09:42:52;100420.03;;;-3.93;100.00
43436;BME280;36399;51.444;-2.018;2022-12-15T09:45:21;100418.59;;;-3.26;100.00
43436;BME280;36399;51.444;-2.018;2022-12-15T09:47:57;100410.44;;;-2.41;100.00
43436;BME280;36399;51.444;-2.018;2022-12-15T09:50:46;100422.06;;;-1.51;100.00
43436;BME280;36399;51.444;-2.018;2022-12-15T09:53:17;100422.41;;;-1.45;100.00
43436;BME280;36399;51.444;-2.018;2022-12-15T09:55:51;100418.38;;;-0.97;100.00
43436;BME280;36399;51.444;-2.018;2022-12-15T10:06:20;100407.81;;;0.39;100.00
43436;BME280;36399;51.444;-2.018;2022-12-15T10:09:02;100412.56;;;0.47;100.00
43436;BME280;36399;51.444;-2.018;2022-12-15T10:11:49;100408.13;;;1.11;100.00
43436;BME280;36399;51.444;-2.018;2022-12-15T10:14:31;100401.94;;;-0.39;100.00
43436;BME280;36399;51.444;-2.018;2022-12-15T10:17:23;100394.94;;;-0.25;100.00
43436;BME280;36399;51.444;-2.018;2022-12-15T10:19:58;100392.06;;;0.50;100.00
43436;BME280;36399;51.444;-2.018;2022-12-15T10:22:33;100397.69;;;1.10;100.00
43436;BME280;36399;51.444;-2.018;2022-12-15T10:28:06;100386.97;;;1.38;100.00
43436;BME280;36399;51.444;-2.018;2022-12-15T10:30:51;100382.81;;;2.14;100.00
43436;BME280;36399;51.444;-2.018;2022-12-15T10:33:22;100380.19;;;1.95;100.00
43436;BME280;36399;51.444;-2.018;2022-12-15T10:35:54;100370.53;;;2.29;100.00
43436;BME280;36399;51.444;-2.018;2022-12-15T10:38:33;100378.56;;;3.36;100.00
43436;BME280;36399;51.444;-2.018;2022-12-15T10:41:06;100368.94;;;3.34;100.00
43436;BME280;36399;51.444;-2.018;2022-12-15T10:43:35;100362.81;;;3.54;100.00
43436;BME280;36399;51.444;-2.018;2022-12-15T10:48:36;100345.78;;;3.61;100.00
43436;BME280;36399;51.444;-2.018;2022-12-15T10:51:24;100353.41;;;3.78;100.00
43436;BME280;36399;51.444;-2.018;2022-12-15T10:54:03;100343.38;;;4.11;100.00
43436;BME280;36399;51.444;-2.018;2022-12-15T10:56:32;100334.66;;;4.33;100.00
43436;BME280;36399;51.444;-2.018;2022-12-15T10:59:02;100336.97;;;4.50;100.00
43436;BME280;36399;51.444;-2.018;2022-12-15T11:01:31;100333.59;;;4.28;100.00
43436;BME280;36399;51.444;-2.018;2022-12-15T11:03:58;100344.13;;;4.31;100.00
43436;BME280;36399;51.444;-2.018;2022-12-15T11:06:27;100335.63;;;4.13;100.00
43436;BME280;36399;51.444;-2.018;2022-12-15T11:09:07;100338.72;;;4.03;100.00
43436;BME280;36399;51.444;-2.018;2022-12-15T11:11:37;100329.16;;;4.02;100.00
43436;BME280;36399;51.444;-2.018;2022-12-15T11:14:41;100328.13;;;3.52;100.00
43436;BME280;36399;51.444;-2.018;2022-12-15T11:17:07;100334.25;;;3.32;100.00
43436;BME280;36399;51.444;-2.018;2022-12-15T11:22:08;100327.25;;;2.27;100.00
43436;BME280;36399;51.444;-2.018;2022-12-15T11:24:41;100334.34;;;2.31;100.00
43436;BME280;36399;51.444;-2.018;2022-12-15T11:27:25;100325.88;;;1.40;100.00
43436;BME280;36399;51.444;-2.018;2022-12-15T11:32:36;100321.47;;;1.94;100.00
43436;BME280;36399;51.444;-2.018;2022-12-15T11:35:11;100328.28;;;2.70;100.00
43436;BME280;36399;51.444;-2.018;2022-12-15T11:37:51;100325.25;;;2.40;100.00
43436;BME280;36399;51.444;-2.018;2022-12-15T11:40:39;100318.16;;;1.59;100.00
43436;BME280;36399;51.444;-2.018;2022-12-15T11:43:21;100310.31;;;2.14;100.00
43436;BME280;36399;51.444;-2.018;2022-12-15T11:48:52;100297.88;;;2.07;100.00
43436;BME280;36399;51.444;-2.018;2022-12-15T11:54:28;100303.94;;;2.27;100.00
43436;BME280;36399;51.444;-2.018;2022-12-15T12:00:18;100300.53;;;2.68;100.00
43436;BME280;36399;51.444;-2.018;2022-12-15T12:08:18;100299.00;;;2.73;100.00
43436;BME280;36399;51.444;-2.018;2022-12-15T12:10:58;100304.81;;;2.88;100.00
43436;BME280;36399;51.444;-2.018;2022-12-15T12:19:04;100305.75;;;2.48;100.00
43436;BME280;36399;51.444;-2.018;2022-12-15T12:21:35;100302.25;;;1.88;100.00
43436;BME280;36399;51.444;-2.018;2022-12-15T12:24:13;100305.25;;;1.78;100.00
43436;BME280;36399;51.444;-2.018;2022-12-15T12:26:48;100306.31;;;2.41;100.00
43436;BME280;36399;51.444;-2.018;2022-12-15T12:29:39;100304.03;;;3.11;100.00
43436;BME280;36399;51.444;-2.018;2022-12-15T12:32:29;100290.66;;;2.00;100.00
43436;BME280;36399;51.444;-2.018;2022-12-15T12:40:44;100290.22;;;1.52;100.00
43436;BME280;36399;51.444;-2.018;2022-12-15T12:46:04;100297.06;;;0.61;100.00
43436;BME280;36399;51.444;-2.018;2022-12-15T12:51:40;100288.66;;;1.01;100.00
43436;BME280;36399;51.444;-2.018;2022-12-15T12:55:04;100291.50;;;1.05;100.00
43436;BME280;36399;51.444;-2.018;2022-12-15T12:57:40;100285.88;;;1.14;100.00
43436;BME280;36399;51.444;-2.018;2022-12-15T13:05:22;100279.25;;;2.97;100.00
43436;BME280;36399;51.444;-2.018;2022-12-15T13:10:40;100287.22;;;2.39;100.00
43436;BME280;36399;51.444;-2.018;2022-12-15T13:18:26;100301.19;;;-0.25;100.00
43436;BME280;36399;51.444;-2.018;2022-12-15T13:20:56;100291.88;;;-0.54;100.00
43436;BME280;36399;51.444;-2.018;2022-12-15T13:28:18;100291.53;;;-0.77;100.00
43436;BME280;36399;51.444;-2.018;2022-12-15T13:46:56;100300.22;;;-1.20;100.00
43436;BME280;36399;51.444;-2.018;2022-12-15T13:49:34;100299.16;;;-1.09;100.00
43436;BME280;36399;51.444;-2.018;2022-12-15T13:54:58;100285.69;;;-1.35;100.00
43436;BME280;36399;51.444;-2.018;2022-12-15T13:57:26;100290.84;;;-1.49;100.00
43436;BME280;36399;51.444;-2.018;2022-12-15T14:00:20;100282.88;;;-1.54;100.00
43436;BME280;36399;51.444;-2.018;2022-12-15T14:02:45;100284.09;;;-1.62;100.00
43436;BME280;36399;51.444;-2.018;2022-12-15T14:07:42;100282.41;;;-1.76;100.00
43436;BME280;36399;51.444;-2.018;2022-12-15T14:13:00;100282.41;;;-1.91;100.00
43436;BME280;36399;51.444;-2.018;2022-12-15T14:15:32;100288.88;;;-1.98;100.00
43436;BME280;36399;51.444;-2.018;2022-12-15T14:18:00;100287.88;;;-2.00;100.00
43436;BME280;36399;51.444;-2.018;2022-12-15T14:20:28;100290.03;;;-1.93;100.00
43436;BME280;36399;51.444;-2.018;2022-12-15T14:22:55;100285.84;;;-2.05;100.00
43436;BME280;36399;51.444;-2.018;2022-12-15T14:25:27;100284.75;;;-2.09;100.00
43436;BME280;36399;51.444;-2.018;2022-12-15T14:27:56;100292.88;;;-2.16;100.00
43436;BME280;36399;51.444;-2.018;2022-12-15T14:35:43;100296.06;;;-2.20;100.00
43436;BME280;36399;51.444;-2.018;2022-12-15T14:41:16;100293.19;;;-2.39;100.00
43436;BME280;36399;51.444;-2.018;2022-12-15T14:43:44;100299.03;;;-2.42;100.00
43436;BME280;36399;51.444;-2.018;2022-12-15T14:46:14;100292.81;;;-2.45;100.00
43436;BME280;36399;51.444;-2.018;2022-12-15T14:48:52;100302.91;;;-2.48;100.00
43436;BME280;36399;51.444;-2.018;2022-12-15T14:51:20;100301.13;;;-2.49;100.00
43436;BME280;36399;51.444;-2.018;2022-12-15T14:53:48;100304.69;;;-2.47;100.00
43436;BME280;36399;51.444;-2.018;2022-12-15T14:58:57;100303.94;;;-2.60;100.00
43436;BME280;36399;51.444;-2.018;2022-12-15T15:01:26;100303.25;;;-2.70;100.00
43436;BME280;36399;51.444;-2.018;2022-12-15T15:04:00;100305.44;;;-2.76;100.00
43436;BME280;36399;51.444;-2.018;2022-12-15T15:06:37;100303.38;;;-2.82;100.00
43436;BME280;36399;51.444;-2.018;2022-12-15T15:09:24;100303.38;;;-2.95;100.00